| weather.gov |
![]() |
![]() | |
| Witham Field Airport |
| metric |
| D a t e | Time (est) |
Wind (mph) | Vis. (mi.) | Weather | Sky Cond. | Temperature (ºF) | Relative Humidity | Wind Chill (°F) | Heat Index (°F) | Pressure | Precipitation (in.) | ||||||
|---|---|---|---|---|---|---|---|---|---|---|---|---|---|---|---|---|---|
| Air | Dwpt | 6 hour | altimeter (in) | sea level (mb) | 1 hr | 3 hr | 6 hr | ||||||||||
| Max. | Min. | ||||||||||||||||
| 16 | 09:47 | NW 6 | 10.00 | Fair | CLR | 57 | 43 | 59% | NA | NA | 30.21 | NA | |||||
| 16 | 08:47 | W 6 | 10.00 | Fair | CLR | 52 | 43 | 72% | NA | NA | 30.19 | NA | |||||
| 16 | 07:47 | W 6 | 10.00 | Fair | CLR | 43 | 37 | 81% | 39 | NA | 30.17 | NA | |||||
| 16 | 06:47 | Calm | 10.00 | Fair | CLR | 43 | 39 | 87% | NA | NA | 30.16 | NA | |||||
| 16 | 06:35 | NW 3 | 10.00 | Fair | CLR | 42 | 38 | 85% | NA | NA | 30.16 | NA | |||||
| 16 | 06:15 | NW 3 | 10.00 | Fair | CLR | 43 | 38 | 82% | NA | NA | 30.16 | NA | |||||
| 16 | 05:55 | NW 5 | 10.00 | Fair | CLR | 41 | 37 | 85% | 38 | NA | 30.15 | NA | |||||
| 16 | 05:35 | W 3 | 10.00 | Fair | CLR | 43 | 38 | 83% | NA | NA | 30.14 | NA | |||||
| 16 | 05:15 | W 3 | 10.00 | Fair | CLR | 42 | 38 | 84% | NA | NA | 30.14 | NA | |||||
| 16 | 04:55 | W 3 | 10.00 | Fair | CLR | 42 | 38 | 85% | NA | NA | 30.14 | NA | |||||
| 16 | 04:35 | W 3 | 10.00 | Fair | CLR | 42 | 37 | 83% | NA | NA | 30.13 | NA | |||||
| 16 | 04:15 | W 3 | 10.00 | Fair | CLR | 43 | 38 | 85% | NA | NA | 30.13 | NA | |||||
| 16 | 03:55 | NW 3 | 10.00 | Fair | CLR | 42 | 37 | 84% | NA | NA | 30.13 | NA | |||||
| 16 | 03:35 | NW 3 | 10.00 | Fair | CLR | 43 | 38 | 81% | NA | NA | 30.14 | NA | |||||
| 16 | 03:15 | W 3 | 10.00 | Fair | CLR | 42 | 37 | 82% | NA | NA | 30.14 | NA | |||||
| 16 | 02:55 | W 3 | 10.00 | Fair | CLR | 44 | 38 | 79% | NA | NA | 30.13 | NA | |||||
| 16 | 02:35 | W 5 | 10.00 | Fair | CLR | 41 | 36 | 83% | 38 | NA | 30.14 | NA | |||||
| 16 | 02:15 | Calm | 10.00 | Fair | CLR | 44 | 38 | 78% | NA | NA | 30.13 | NA | |||||
| 16 | 01:55 | Calm | 10.00 | Fair | CLR | 45 | 38 | 77% | NA | NA | 30.14 | NA | |||||
| 16 | 01:35 | Calm | 10.00 | Fair | CLR | 45 | 37 | 75% | NA | NA | 30.15 | NA | |||||
| 16 | 01:15 | W 5 | 10.00 | Fair | CLR | 46 | 38 | 76% | 44 | NA | 30.15 | NA | |||||
| 16 | 00:55 | W 5 | 10.00 | Fair | CLR | 44 | 37 | 53 | 43 | 79% | 41 | NA | 30.16 | NA | |||
| 16 | 00:35 | W 5 | 10.00 | Fair | CLR | 44 | 38 | 81% | 41 | NA | 30.15 | NA | |||||
| 16 | 00:15 | SW 3 | 10.00 | Fair | CLR | 44 | 38 | 79% | NA | NA | 30.15 | NA | |||||
| 15 | 23:55 | Calm | 10.00 | Fair | CLR | 44 | 38 | 79% | NA | NA | 30.16 | NA | |||||
| 15 | 23:35 | W 3 | 10.00 | Fair | CLR | 45 | 38 | 77% | NA | NA | 30.16 | NA | |||||
| 15 | 23:15 | Calm | 10.00 | Fair | CLR | 46 | 39 | 76% | NA | NA | 30.17 | NA | |||||
| 15 | 22:55 | Calm | 10.00 | Fair | CLR | 45 | 38 | 76% | NA | NA | 30.18 | NA | |||||
| 15 | 22:35 | W 3 | 10.00 | Fair | CLR | 47 | 39 | 74% | NA | NA | 30.18 | NA | |||||
| 15 | 22:15 | Calm | 10.00 | Fair | CLR | 46 | 38 | 74% | NA | NA | 30.19 | NA | |||||
| 15 | 21:55 | W 3 | 10.00 | Fair | CLR | 47 | 39 | 73% | NA | NA | 30.18 | NA | |||||
| 15 | 21:48 | W 5 | 10.00 | Fair | CLR | 48 | 37 | 66% | 46 | NA | 30.18 | NA | |||||
| 15 | 20:48 | NW 5 | 10.00 | Fair | CLR | 52 | 37 | 58% | NA | NA | 30.18 | NA | |||||
| 15 | 19:48 | Vrbl 5 | 10.00 | Fair | CLR | 52 | 37 | 58% | NA | NA | 30.17 | NA | |||||
| 15 | 18:48 | Calm | 10.00 | Fair | CLR | 52 | 36 | 54% | NA | NA | 30.15 | NA | |||||
| 15 | 17:50 | NE 5 | 10.00 | Fair | CLR | 55 | 34 | 44% | NA | NA | 30.14 | NA | |||||
| 15 | 16:50 | NE 5 | 10.00 | Fair | CLR | 61 | 30 | 31% | NA | NA | 30.14 | NA | |||||
| 15 | 14:50 | NW 7 | 10.00 | Fair | CLR | 61 | 25 | 25% | NA | NA | 30.15 | NA | |||||
| 15 | 13:47 | NW 7 | 10.00 | Fair | CLR | 61 | 23 | 23% | NA | NA | 30.17 | NA | |||||
| 15 | 12:47 | NW 6 | 10.00 | Fair | CLR | 57 | 27 | 31% | NA | NA | 30.20 | NA | |||||
| 15 | 11:47 | NW 9 | 10.00 | Fair | CLR | 55 | 28 | 36% | NA | NA | 30.23 | NA | |||||
| 15 | 10:47 | NW 10 | 10.00 | Fair | CLR | 50 | 30 | 47% | 46 | NA | 30.24 | NA | |||||
| 15 | 09:47 | NA | 10.00 | Fair | CLR | 50 | 30 | 47% | NA | NA | 30.24 | NA | |||||
| 15 | 08:47 | NW 10 | 10.00 | Fair | CLR | 46 | 30 | 53% | 41 | NA | 30.21 | NA | |||||
| 15 | 07:47 | NW 10 | 10.00 | Fair | CLR | 43 | 32 | 66% | 37 | NA | 30.20 | NA | |||||
| 15 | 06:47 | NW 10 | 10.00 | Fair | CLR | 43 | 32 | 66% | 37 | NA | 30.18 | NA | |||||
| 15 | 06:35 | W 8 | 10.00 | Fair | CLR | 42 | 32 | 69% | 37 | NA | 30.18 | NA | |||||
| 15 | 06:15 | W 8 | 10.00 | Fair | CLR | 41 | 32 | 71% | 36 | NA | 30.18 | NA | |||||
| 15 | 05:55 | W 9 | 10.00 | Fair | CLR | 42 | 32 | 68% | 37 | NA | 30.18 | NA | |||||
| 15 | 05:35 | NW 9 | 10.00 | Fair | CLR | 43 | 32 | 64% | 38 | NA | 30.17 | NA | |||||
| 15 | 05:15 | NW 7 | 10.00 | Fair | CLR | 43 | 33 | 67% | 39 | NA | 30.18 | NA | |||||
| 15 | 04:55 | W 8 | 10.00 | Fair | CLR | 42 | 33 | 72% | 37 | NA | 30.18 | NA | |||||
| 15 | 04:35 | W 7 | 10.00 | Fair | CLR | 41 | 34 | 77% | 36 | NA | 30.18 | NA | |||||
| 15 | 04:15 | W 9 | 10.00 | Fair | CLR | 41 | 34 | 76% | 35 | NA | 30.18 | NA | |||||
| 15 | 03:55 | W 8 | 10.00 | Fair | CLR | 42 | 34 | 73% | 37 | NA | 30.18 | NA | |||||
| 15 | 03:35 | W 8 | 10.00 | Fair | CLR | 43 | 34 | 72% | 38 | NA | 30.18 | NA | |||||
| 15 | 03:15 | W 8 | 10.00 | Fair | CLR | 42 | 35 | 76% | 37 | NA | 30.17 | NA | |||||
| 15 | 02:55 | NW 8 | 10.00 | Fair | CLR | 44 | 33 | 66% | 39 | NA | 30.17 | NA | |||||
| 15 | 02:35 | NW 8 | 10.00 | Fair | CLR | 44 | 34 | 67% | 39 | NA | 30.17 | NA | |||||
| 15 | 02:15 | W 7 | 10.00 | Fair | CLR | 44 | 35 | 72% | 40 | NA | 30.17 | NA | |||||
| 15 | 01:55 | NW 6 | 10.00 | Fair | CLR | 44 | 35 | 70% | 41 | NA | 30.17 | NA | |||||
| 15 | 01:35 | NW 6 | 10.00 | Fair | CLR | 44 | 36 | 72% | 41 | NA | 30.16 | NA | |||||
| 15 | 01:15 | NW 7 | 10.00 | Fair | CLR | 45 | 36 | 71% | 41 | NA | 30.16 | NA | |||||
| 15 | 00:55 | NW 7 | 10.00 | Fair | CLR | 45 | 36 | 51 | 45 | 71% | 41 | NA | 30.15 | NA | |||
| 15 | 00:35 | NW 7 | 10.00 | Fair | CLR | 45 | 36 | 72% | 41 | NA | 30.15 | NA | |||||
| 15 | 00:15 | NW 10 | 10.00 | Fair | CLR | 45 | 36 | 70% | 40 | NA | 30.15 | NA | |||||
| 14 | 23:55 | NW 10 G 18 | 10.00 | Fair | CLR | 46 | 36 | 69% | 41 | NA | 30.16 | NA | |||||
| 14 | 23:35 | NW 13 G 20 | 10.00 | Fair | CLR | 46 | 37 | 70% | 40 | NA | 30.16 | NA | |||||
| 14 | 23:15 | NW 9 G 22 | 10.00 | Fair | CLR | 46 | 36 | 68% | 41 | NA | 30.16 | NA | |||||
| 14 | 22:55 | NW 14 G 18 | 10.00 | Fair | CLR | 46 | 36 | 67% | 40 | NA | 30.17 | NA | |||||
| 14 | 22:35 | NW 15 G 20 | 10.00 | Fair | CLR | 47 | 36 | 66% | 41 | NA | 30.17 | NA | |||||
| 14 | 22:15 | W 13 G 21 | 10.00 | Fair | CLR | 47 | 36 | 64% | 41 | NA | 30.17 | NA | |||||
| 14 | 21:55 | W 16 G 21 | 10.00 | Fair | CLR | 48 | 36 | 63% | 42 | NA | 30.16 | NA | |||||
| 14 | 21:48 | NW 12 | 10.00 | Fair | CLR | 48 | 36 | 62% | 43 | NA | 30.15 | NA | |||||
| 14 | 20:48 | W 9 | 10.00 | Fair | CLR | 48 | 36 | 62% | 44 | NA | 30.14 | NA | |||||
| 14 | 19:48 | W 7 | 10.00 | Fair | CLR | 48 | 34 | 58% | 45 | NA | 30.12 | NA | |||||
| 14 | 18:48 | W 7 | 10.00 | Fair | CLR | 52 | 34 | 50% | NA | NA | 30.10 | NA | |||||
| 14 | 17:48 | W 14 | 10.00 | Fair | CLR | 54 | 32 | 44% | NA | NA | 30.08 | NA | |||||
| 14 | 16:48 | W 14 G 25 | 10.00 | Fair | CLR | 55 | 30 | 38% | NA | NA | 30.07 | NA | |||||
| 14 | 15:48 | NW 14 G 23 | 10.00 | Fair | CLR | 57 | 30 | 36% | NA | NA | 30.05 | NA | |||||
| 14 | 14:51 | NW 15 G 23 | 10.00 | Fair | CLR | 57 | 28 | 33% | NA | NA | 30.04 | NA | |||||
| 14 | 13:47 | NW 14 G 23 | 7.00 | Fair | CLR | 54 | 28 | 38% | NA | NA | 30.05 | NA | |||||
| 14 | 12:47 | NW 15 G 24 | 7.00 | Fair | CLR | 54 | 30 | 41% | NA | NA | 30.09 | NA | |||||
| 14 | 11:47 | NW 20 G 29 | 7.00 | Fair | CLR | 52 | 30 | 44% | NA | NA | 30.12 | NA | |||||
| 14 | 10:47 | NW 20 G 25 | 7.00 | Fair | CLR | 50 | 28 | 43% | 44 | NA | 30.14 | NA | |||||
| 14 | 09:47 | NW 14 G 23 | 7.00 | Fair | CLR | 46 | 30 | 53% | 40 | NA | 30.15 | NA | |||||
| 14 | 08:47 | NW 16 G 23 | 7.00 | Fair | CLR | 45 | 32 | 61% | 38 | NA | 30.14 | NA | |||||
| 14 | 07:47 | W 16 G 23 | 7.00 | Fair | CLR | 43 | 30 | 61% | 35 | NA | 30.11 | NA | |||||
| 14 | 06:47 | W 15 G 23 | 7.00 | Fair | CLR | 43 | 32 | 66% | 36 | NA | 30.09 | NA | |||||
| 14 | 06:35 | W 9 | 10.00 | Fair | CLR | 42 | 32 | 67% | 37 | NA | 30.08 | NA | |||||
| 14 | 06:15 | W 14 G 21 | 10.00 | Fair | CLR | 43 | 32 | 66% | 36 | NA | 30.07 | NA | |||||
| 14 | 05:55 | W 14 G 21 | 10.00 | Fair | CLR | 44 | 32 | 64% | 37 | NA | 30.06 | NA | |||||
| 14 | 05:35 | W 9 G 17 | 10.00 | Fair | CLR | 44 | 32 | 63% | 39 | NA | 30.05 | NA | |||||
| 14 | 05:15 | W 13 G 22 | 10.00 | Fair | CLR | 45 | 32 | 61% | 39 | NA | 30.04 | NA | |||||
| 14 | 04:55 | NW 13 G 22 | 10.00 | Fair | CLR | 46 | 32 | 59% | 40 | NA | 30.03 | NA | |||||
| 14 | 04:35 | NW 16 G 22 | 10.00 | Fair | CLR | 46 | 32 | 58% | 39 | NA | 30.02 | NA | |||||
| 14 | 04:15 | NW 13 G 22 | 10.00 | Fair | CLR | 46 | 32 | 59% | 40 | NA | 30.02 | NA | |||||
| 14 | 03:55 | NW 14 G 22 | 10.00 | Fair | CLR | 46 | 32 | 57% | 40 | NA | 30.02 | NA | |||||
| 14 | 03:35 | NW 13 G 22 | 10.00 | Fair | CLR | 47 | 32 | 57% | 41 | NA | 30.01 | NA | |||||
| 14 | 03:15 | NW 10 G 21 | 10.00 | Fair | CLR | 47 | 32 | 55% | 42 | NA | 30.01 | NA | |||||
| 14 | 02:55 | W 18 G 24 | 10.00 | Fair | CLR | 48 | 32 | 54% | 41 | NA | 30.00 | NA | |||||
| 14 | 02:35 | W 15 G 22 | 10.00 | Fair | CLR | 48 | 32 | 54% | 42 | NA | 30.01 | NA | |||||
| 14 | 02:15 | NW 13 G 28 | 10.00 | Fair | CLR | 49 | 34 | 56% | 44 | NA | 30.01 | NA | |||||
| 14 | 01:55 | NW 14 G 29 | 10.00 | Partly Cloudy | SCT032 | 51 | 37 | 58% | NA | NA | 30.00 | NA | |||||
| 14 | 01:35 | W 15 G 25 | 10.00 | Partly Cloudy | SCT038 | 52 | 37 | 58% | NA | NA | 29.99 | NA | |||||
| 14 | 01:15 | W 14 G 23 | 10.00 | Partly Cloudy | SCT036 | 53 | 39 | 59% | NA | NA | 29.99 | NA | |||||
| 14 | 00:55 | W 15 G 25 | 10.00 | Mostly Cloudy | BKN034 | 54 | 40 | 60 | 54 | 59% | NA | NA | 29.99 | NA | |||
| 14 | 00:35 | W 15 G 21 | 10.00 | Overcast | OVC036 | 55 | 41 | 60% | NA | NA | 29.98 | NA | |||||
| 14 | 00:15 | W 16 G 22 | 10.00 | Overcast | OVC038 | 55 | 40 | 57% | NA | NA | 29.99 | NA | |||||
| 13 | 23:55 | NW 15 G 26 | 10.00 | Overcast | OVC038 | 55 | 40 | 57% | NA | NA | 29.99 | NA | |||||
| 13 | 23:35 | W 16 G 21 | 10.00 | Overcast | OVC036 | 56 | 42 | 58% | NA | NA | 29.99 | NA | |||||
| 13 | 23:15 | W 9 | 10.00 | Overcast | OVC036 | 56 | 43 | 62% | NA | NA | 29.99 | NA | |||||
| 13 | 22:55 | W 9 | 10.00 | Overcast | OVC036 | 56 | 43 | 61% | NA | NA | 29.98 | NA | |||||
| 13 | 22:35 | W 12 G 20 | 10.00 | Overcast | OVC036 | 57 | 43 | 60% | NA | NA | 29.98 | NA | |||||
| 13 | 22:15 | W 10 | 10.00 | Overcast | OVC036 | 57 | 43 | 60% | NA | NA | 29.99 | NA | |||||
| 13 | 21:55 | W 10 G 17 | 10.00 | Mostly Cloudy | BKN036 | 57 | 44 | 62% | NA | NA | 29.98 | NA | |||||
| 13 | 21:47 | W 17 G 24 | 7.00 | Fair | CLR | 57 | 45 | 63% | NA | NA | 29.99 | NA | |||||
| 13 | 20:47 | W 17 G 24 | 7.00 | Fair | CLR | 57 | 45 | 63% | NA | NA | 29.96 | NA | |||||
| 13 | 19:47 | W 17 G 24 | 7.00 | Fair | CLR | 57 | 45 | 63% | NA | NA | 29.94 | NA | |||||
| 13 | 18:47 | W 17 G 24 | 7.00 | Fair | CLR | 61 | 46 | 59% | NA | NA | 29.91 | NA | |||||
| 13 | 16:47 | W 22 G 30 | 7.00 | Fair and Breezy | CLR | 68 | 48 | 49% | NA | NA | 29.86 | NA | |||||
| 13 | 15:47 | W 24 G 32 | 7.00 | Fair and Breezy | CLR | 72 | 54 | 53% | NA | NA | 29.85 | NA | |||||
| 13 | 14:47 | W 20 G 24 | 7.00 | Mostly Cloudy | BKN012 | 72 | 64 | 78% | NA | NA | 29.84 | NA | |||||
| 13 | 13:47 | W 14 G 22 | 5.00 | Light Rain | SCT008 BKN010 OVC018 | 70 | 64 | 83% | NA | NA | 29.84 | NA | |||||
| 13 | 12:47 | W 13 G 20 | 4.00 | Light Rain | SCT021 BKN050 | 68 | 64 | 88% | NA | NA | 29.89 | NA | |||||
| 13 | 11:47 | SW 18 G 28 | 4.00 | Light Rain | SCT025 | 75 | 57 | 54% | NA | NA | 29.90 | NA | |||||
| 13 | 10:47 | SW 14 G 23 | 7.00 | Partly Cloudy | SCT030 | 73 | 57 | 57% | NA | NA | 29.91 | NA | |||||
| D a t e | Time (est) |
Wind (mph) | Vis. (mi.) | Weather | Sky Cond. | Air | Dwpt | Max. | Min. | Relative Humidity | Wind Chill (°F) | Heat Index (°F) | altimeter (in.) | sea level (mb) |
1 hr | 3 hr | 6 hr |
| 6 hour | |||||||||||||||||
| Temperature (ºF) | Pressure | Precipitation (in.) | |||||||||||||||
| National Weather Service Southern Region Headquarters Fort Worth, Texas Disclaimer |
Last Modified: Febuary, 7 2012 Privacy Policy |
|